createdAt,value
2022-09-07T00:01:46.097Z,99.90
2022-09-07T00:04:46.946Z,99.90
2022-09-07T00:07:47.885Z,99.90
2022-09-07T00:10:58.610Z,99.90
2022-09-07T00:14:00.272Z,99.90
2022-09-07T00:17:01.261Z,99.90
2022-09-07T00:20:03.237Z,99.90
2022-09-07T00:23:04.708Z,99.90
2022-09-07T00:26:11.078Z,99.90
2022-09-07T00:29:11.891Z,99.90
2022-09-07T00:32:13.441Z,99.90
2022-09-07T00:35:14.336Z,99.90
2022-09-07T00:38:15.784Z,99.90
2022-09-07T00:41:19.239Z,99.90
2022-09-07T00:44:44.708Z,99.90
2022-09-07T00:48:13.808Z,99.90
2022-09-07T00:51:31.809Z,99.90
2022-09-07T00:54:50.627Z,99.90
2022-09-07T00:57:55.804Z,99.90
2022-09-07T01:00:57.116Z,99.90
2022-09-07T01:04:01.257Z,99.90
2022-09-07T01:07:03.960Z,99.90
2022-09-07T01:10:06.892Z,99.90
2022-09-07T01:13:08.637Z,99.90
2022-09-07T01:16:40.810Z,99.90
2022-09-07T01:20:00.486Z,99.90
2022-09-07T01:23:30.922Z,99.90
2022-09-07T01:26:58.831Z,99.90
2022-09-07T01:30:16.336Z,99.90
2022-09-07T01:33:55.536Z,99.90
2022-09-07T01:37:05.372Z,99.90
2022-09-07T01:40:25.187Z,99.90
2022-09-07T01:43:48.240Z,99.90
2022-09-07T01:47:09.672Z,99.90
2022-09-07T01:50:42.634Z,99.90
2022-09-07T01:54:01.103Z,99.90
2022-09-07T01:57:11.902Z,99.90
2022-09-07T02:00:17.537Z,99.90
2022-09-07T02:03:31.034Z,99.90
2022-09-07T02:07:17.099Z,99.90
2022-09-07T02:10:29.136Z,99.90
2022-09-07T02:13:42.245Z,99.90
2022-09-07T02:17:05.306Z,99.90
2022-09-07T02:20:20.090Z,99.90
2022-09-07T02:23:30.830Z,99.90
2022-09-07T02:26:34.756Z,99.90
2022-09-07T02:29:35.791Z,99.90
2022-09-07T02:32:36.961Z,99.90
2022-09-07T02:35:38.330Z,99.90
2022-09-07T02:38:39.928Z,99.90
2022-09-07T02:41:45.298Z,99.90
2022-09-07T02:44:48.279Z,99.90
2022-09-07T02:47:52.338Z,99.90
2022-09-07T02:51:18.238Z,99.90
2022-09-07T02:54:37.349Z,99.90
2022-09-07T02:58:07.253Z,99.90
2022-09-07T03:01:49.899Z,99.90
2022-09-07T03:05:02.730Z,99.90
2022-09-07T03:08:28.848Z,99.90
2022-09-07T03:11:31.028Z,99.90
2022-09-07T03:14:33.898Z,99.90
2022-09-07T03:17:35.204Z,99.90
2022-09-07T03:20:36.161Z,99.90
2022-09-07T03:23:37.810Z,99.90
2022-09-07T03:26:44.698Z,99.90
2022-09-07T03:29:45.520Z,99.90
2022-09-07T03:32:47.535Z,99.90
2022-09-07T03:36:02.577Z,99.90
2022-09-07T03:39:05.093Z,99.90
2022-09-07T03:42:06.178Z,99.90
2022-09-07T03:45:08.947Z,99.90
2022-09-07T03:48:09.774Z,99.90
2022-09-07T03:51:12.017Z,99.90
2022-09-07T03:54:13.388Z,99.90
2022-09-07T03:57:14.392Z,99.90
2022-09-07T04:00:16.311Z,99.90
2022-09-07T04:03:17.364Z,99.90
2022-09-07T04:06:19.914Z,99.90
2022-09-07T04:09:21.101Z,99.90
2022-09-07T04:12:21.924Z,99.90
2022-09-07T04:15:22.785Z,99.90
2022-09-07T04:18:24.866Z,99.90
2022-09-07T04:21:28.026Z,99.90
2022-09-07T04:24:29.291Z,99.90
2022-09-07T04:27:30.425Z,99.90
2022-09-07T04:30:36.259Z,99.90
2022-09-07T04:33:37.899Z,99.90
2022-09-07T04:36:38.919Z,99.90
2022-09-07T04:39:39.789Z,99.90
2022-09-07T04:42:40.840Z,99.90
2022-09-07T04:45:41.631Z,99.90
2022-09-07T04:48:42.891Z,99.90
2022-09-07T04:51:44.526Z,99.90
2022-09-07T04:54:50.877Z,99.90
2022-09-07T04:57:52.113Z,99.90
2022-09-07T05:00:53.239Z,99.90
2022-09-07T05:03:54.367Z,99.90
2022-09-07T05:06:55.380Z,99.90
2022-09-07T05:09:57.430Z,99.90
2022-09-07T05:12:58.875Z,99.90
2022-09-07T05:16:07.301Z,99.90
2022-09-07T05:19:12.553Z,99.90
2022-09-07T05:22:13.865Z,99.90
2022-09-07T05:25:15.337Z,99.90
2022-09-07T05:28:19.462Z,99.90
2022-09-07T05:31:23.731Z,99.90
2022-09-07T05:37:29.895Z,99.90
2022-09-07T05:40:36.107Z,99.90
2022-09-07T05:47:00.905Z,99.90
2022-09-07T05:50:02.236Z,99.90
2022-09-07T05:53:04.076Z,99.90
2022-09-07T05:56:07.292Z,99.90
2022-09-07T05:59:07.969Z,99.90
2022-09-07T06:02:17.381Z,99.90
2022-09-07T06:05:18.606Z,99.90
2022-09-07T06:08:19.460Z,99.90
2022-09-07T06:11:24.284Z,99.90
2022-09-07T06:14:25.337Z,99.90
2022-09-07T06:17:26.503Z,99.90
2022-09-07T06:20:27.702Z,99.90
2022-09-07T06:23:31.807Z,99.90
2022-09-07T06:26:33.516Z,99.90
2022-09-07T06:29:35.639Z,99.90
2022-09-07T06:32:45.991Z,99.90
2022-09-07T06:36:00.085Z,99.90
2022-09-07T06:39:03.947Z,99.90
2022-09-07T06:42:05.064Z,99.90
2022-09-07T06:45:07.040Z,99.90
2022-09-07T06:48:08.098Z,99.90
2022-09-07T06:51:19.885Z,99.90
2022-09-07T06:57:42.039Z,99.90
2022-09-07T07:00:43.032Z,99.90
2022-09-07T07:03:45.267Z,99.90
2022-09-07T07:06:46.054Z,99.90
2022-09-07T07:09:50.074Z,99.90
2022-09-07T07:12:53.215Z,99.90
2022-09-07T07:16:10.922Z,99.90
2022-09-07T07:19:11.965Z,99.90
2022-09-07T07:25:35.732Z,99.90
2022-09-07T07:31:58.170Z,99.90
2022-09-07T07:34:58.946Z,99.90
2022-09-07T07:44:47.382Z,99.90
2022-09-07T07:47:51.836Z,99.90
2022-09-07T07:51:14.009Z,99.90
2022-09-07T07:54:14.705Z,99.90
2022-09-07T07:57:17.059Z,99.90
2022-09-07T08:00:31.834Z,99.90
2022-09-07T08:03:42.033Z,99.90
2022-09-07T08:06:43.305Z,99.90
2022-09-07T08:09:46.823Z,99.90
2022-09-07T08:12:48.078Z,99.90
2022-09-07T08:15:49.233Z,99.90
2022-09-07T08:18:50.426Z,99.90
2022-09-07T08:21:51.240Z,99.90
2022-09-07T08:24:52.512Z,99.90
2022-09-07T08:27:53.481Z,99.90
2022-09-07T08:30:55.224Z,99.90
2022-09-07T08:33:56.304Z,99.90
2022-09-07T08:36:57.115Z,99.90
2022-09-07T08:39:57.939Z,99.90
2022-09-07T08:43:50.207Z,99.90
2022-09-07T08:47:27.970Z,99.90
2022-09-07T08:50:36.918Z,99.90
2022-09-07T08:53:46.694Z,99.90
2022-09-07T09:00:17.455Z,99.90
2022-09-07T09:03:30.606Z,99.90
2022-09-07T09:07:16.655Z,99.90
2022-09-07T09:10:58.275Z,99.90
2022-09-07T09:14:20.967Z,99.90
2022-09-07T09:17:51.437Z,99.90
2022-09-07T09:20:55.345Z,99.90
2022-09-07T09:24:19.400Z,99.90
2022-09-07T09:27:20.553Z,99.90
2022-09-07T09:30:24.598Z,99.90
2022-09-07T09:33:31.972Z,99.90
2022-09-07T09:36:40.682Z,99.90
2022-09-07T09:39:42.791Z,99.90
2022-09-07T09:42:45.630Z,99.90
2022-09-07T09:49:39.766Z,99.90
2022-09-07T09:52:49.207Z,99.90
2022-09-07T09:55:54.513Z,99.90
2022-09-07T10:06:06.904Z,99.90
2022-09-07T10:09:20.468Z,99.90
2022-09-07T10:12:27.276Z,97.90
2022-09-07T10:15:41.045Z,99.90
2022-09-07T10:18:57.783Z,97.90
2022-09-07T10:22:02.491Z,95.20
2022-09-07T10:25:28.514Z,98.30
2022-09-07T10:32:31.244Z,95.30
2022-09-07T10:35:53.460Z,95.50
2022-09-07T10:39:04.666Z,93.40
2022-09-07T10:42:25.002Z,92.20
2022-09-07T10:45:59.503Z,91.50
2022-09-07T10:50:21.971Z,89.30
2022-09-07T10:53:41.201Z,93.30
2022-09-07T10:57:24.007Z,94.80
2022-09-07T11:00:25.986Z,95.90
2022-09-07T11:03:45.463Z,87.70
2022-09-07T11:06:55.459Z,85.50
2022-09-07T11:10:08.328Z,88.30
2022-09-07T11:13:18.144Z,88.20
2022-09-07T11:19:56.774Z,83.70
2022-09-07T11:23:18.432Z,83.70
2022-09-07T11:26:51.866Z,82.80
2022-09-07T11:30:13.444Z,85.20
2022-09-07T11:33:24.219Z,88.10
2022-09-07T11:36:31.983Z,89.70
2022-09-07T11:39:57.012Z,88.70
2022-09-07T11:43:33.315Z,89.90
2022-09-07T11:46:40.486Z,94.90
2022-09-07T11:49:41.555Z,96.90
2022-09-07T11:52:53.662Z,99.90
2022-09-07T11:56:12.092Z,99.90
2022-09-07T11:59:23.269Z,99.90
2022-09-07T12:03:13.405Z,99.90
2022-09-07T12:06:26.595Z,99.90
2022-09-07T12:10:01.402Z,99.90
2022-09-07T12:13:48.630Z,99.90
2022-09-07T12:16:58.334Z,99.90
2022-09-07T12:20:19.184Z,99.90
2022-09-07T12:23:29.535Z,99.90
2022-09-07T12:26:33.723Z,99.90
2022-09-07T12:29:34.883Z,99.90
2022-09-07T12:32:56.484Z,99.20
2022-09-07T12:36:01.080Z,96.80
2022-09-07T12:39:25.843Z,95.90
2022-09-07T12:42:32.876Z,96.90
2022-09-07T12:45:36.979Z,96.70
2022-09-07T12:49:05.382Z,96.80
2022-09-07T12:52:45.905Z,95.70
2022-09-07T12:56:17.929Z,94.40
2022-09-07T12:59:43.411Z,91.00
2022-09-07T13:03:54.074Z,90.10
2022-09-07T13:07:33.339Z,87.50
2022-09-07T13:10:38.016Z,82.90
2022-09-07T13:17:35.252Z,85.30
2022-09-07T13:20:39.827Z,85.30
2022-09-07T13:27:47.656Z,85.40
2022-09-07T13:31:02.250Z,88.30
2022-09-07T13:34:40.137Z,85.50
2022-09-07T13:38:02.011Z,86.10
2022-09-07T13:41:14.865Z,87.00
2022-09-07T13:44:26.587Z,89.70
2022-09-07T13:48:17.777Z,90.70
2022-09-07T13:51:37.848Z,91.50
2022-09-07T13:55:05.752Z,86.00
2022-09-07T13:58:25.291Z,82.50
2022-09-07T14:01:29.197Z,81.10
2022-09-07T14:04:54.958Z,74.50
2022-09-07T14:07:56.218Z,79.40
2022-09-07T14:10:57.043Z,78.90
2022-09-07T14:14:34.424Z,69.40
2022-09-07T14:17:35.559Z,65.70
2022-09-07T14:20:51.094Z,64.00
2022-09-07T14:23:52.200Z,62.70
2022-09-07T14:26:53.261Z,66.20
2022-09-07T14:29:54.200Z,64.30
2022-09-07T14:33:03.325Z,63.90
2022-09-07T14:36:23.242Z,63.30
2022-09-07T14:39:29.966Z,59.30
2022-09-07T14:42:32.012Z,59.90
2022-09-07T14:45:34.772Z,64.10
2022-09-07T14:48:40.482Z,64.10
2022-09-07T14:51:45.051Z,66.30
2022-09-07T14:54:53.053Z,61.40
2022-09-07T14:58:16.037Z,60.10
2022-09-07T15:04:41.500Z,64.20
2022-09-07T15:07:52.736Z,63.60
2022-09-07T15:14:31.530Z,61.50
2022-09-07T15:17:48.498Z,62.00
2022-09-07T15:20:49.500Z,67.10
2022-09-07T15:23:52.934Z,72.20
2022-09-07T15:27:09.271Z,78.20
2022-09-07T15:30:11.340Z,81.70
2022-09-07T15:33:12.578Z,81.90
2022-09-07T15:36:16.327Z,83.80
2022-09-07T15:39:25.334Z,84.90
2022-09-07T15:45:50.996Z,88.20
2022-09-07T15:48:55.626Z,88.80
2022-09-07T15:52:05.008Z,88.50
2022-09-07T15:55:08.884Z,88.50
2022-09-07T15:58:13.143Z,89.80
2022-09-07T16:04:35.934Z,91.30
2022-09-07T16:11:18.966Z,93.50
2022-09-07T16:14:20.727Z,94.10
2022-09-07T16:17:26.906Z,95.80
2022-09-07T16:20:31.988Z,96.90
2022-09-07T16:23:33.160Z,98.00
2022-09-07T16:26:34.121Z,99.90
2022-09-07T16:29:36.015Z,99.70
2022-09-07T16:32:44.761Z,99.90
2022-09-07T16:36:01.123Z,99.90
2022-09-07T16:39:02.198Z,99.90
2022-09-07T16:42:04.047Z,99.90
2022-09-07T16:48:26.731Z,99.90
2022-09-07T16:51:28.765Z,99.90
2022-09-07T16:54:29.665Z,99.90
2022-09-07T16:58:35.438Z,99.90
2022-09-07T17:00:54.321Z,99.90
2022-09-07T17:03:55.822Z,99.90
2022-09-07T17:06:56.739Z,99.90
2022-09-07T17:09:57.458Z,99.90
2022-09-07T17:12:58.834Z,99.90
2022-09-07T17:16:05.244Z,99.90
2022-09-07T17:22:31.580Z,99.90
2022-09-07T17:25:33.291Z,99.90
2022-09-07T17:28:35.721Z,99.90
2022-09-07T17:35:00.637Z,99.90
2022-09-07T17:38:01.818Z,99.90
2022-09-07T17:41:18.568Z,99.90
2022-09-07T17:44:20.552Z,99.90
2022-09-07T17:47:21.900Z,99.90
2022-09-07T17:50:22.857Z,99.90
2022-09-07T17:53:23.619Z,99.90
2022-09-07T17:56:24.635Z,99.90
2022-09-07T18:02:46.396Z,99.90
2022-09-07T18:05:52.645Z,99.90
2022-09-07T18:08:53.428Z,99.90
2022-09-07T18:11:54.421Z,99.90
2022-09-07T18:14:55.218Z,99.90
2022-09-07T18:17:58.589Z,99.90
2022-09-07T18:20:59.347Z,99.90
2022-09-07T18:24:05.839Z,99.90
2022-09-07T18:27:07.971Z,99.90
2022-09-07T18:30:10.458Z,99.90
2022-09-07T18:33:11.665Z,99.90
2022-09-07T18:36:13.984Z,99.90
2022-09-07T18:39:14.913Z,99.90
2022-09-07T18:42:16.020Z,99.90
2022-09-07T18:45:32.269Z,99.90
2022-09-07T18:48:33.785Z,99.90
2022-09-07T18:52:51.568Z,99.90
2022-09-07T18:54:56.133Z,99.90
2022-09-07T18:57:57.339Z,99.90
2022-09-07T19:01:04.233Z,99.90
2022-09-07T19:04:06.153Z,99.90
2022-09-07T19:07:07.205Z,99.90
2022-09-07T19:10:08.698Z,99.90
2022-09-07T19:13:09.866Z,99.90
2022-09-07T19:16:19.606Z,99.90
2022-09-07T19:19:21.963Z,99.90
2022-09-07T19:22:22.924Z,99.90
2022-09-07T19:25:23.737Z,99.90
2022-09-07T19:28:24.522Z,99.90
2022-09-07T19:31:28.484Z,99.90
2022-09-07T19:34:37.099Z,99.90
2022-09-07T19:37:37.886Z,99.90
2022-09-07T19:40:39.348Z,99.90
2022-09-07T19:43:40.601Z,99.90
2022-09-07T19:46:42.938Z,99.90
2022-09-07T19:49:43.720Z,99.90
2022-09-07T19:52:46.717Z,99.90
2022-09-07T19:55:47.650Z,99.90
2022-09-07T19:58:50.091Z,99.90
2022-09-07T20:01:53.578Z,99.90
2022-09-07T20:04:54.486Z,99.90
2022-09-07T20:07:55.339Z,99.90
2022-09-07T20:11:02.572Z,99.90
2022-09-07T20:14:03.972Z,99.90
2022-09-07T20:17:04.921Z,99.90
2022-09-07T20:20:07.104Z,99.90
2022-09-07T20:23:07.778Z,99.90
2022-09-07T20:26:14.109Z,99.90
2022-09-07T20:29:30.719Z,99.90
2022-09-07T20:32:31.827Z,99.90
2022-09-07T20:35:33.147Z,99.90
2022-09-07T20:38:40.878Z,99.90
2022-09-07T20:41:41.726Z,99.90
2022-09-07T20:44:42.460Z,99.90
2022-09-07T20:47:44.742Z,99.90
2022-09-07T20:50:58.772Z,99.90
2022-09-07T20:53:59.759Z,99.90
2022-09-07T20:57:03.873Z,99.90
2022-09-07T21:00:06.967Z,99.90
2022-09-07T21:03:10.082Z,99.90
2022-09-07T21:06:10.821Z,99.90
2022-09-07T21:09:12.174Z,99.90
2022-09-07T21:12:13.832Z,99.90
2022-09-07T21:15:15.023Z,99.90
2022-09-07T21:18:17.833Z,99.90
2022-09-07T21:21:20.018Z,99.90
2022-09-07T21:24:23.618Z,99.90
2022-09-07T21:27:24.696Z,99.90
2022-09-07T21:30:25.426Z,99.90
2022-09-07T21:33:28.508Z,99.90
2022-09-07T21:36:30.031Z,99.90
2022-09-07T21:39:31.401Z,99.90
2022-09-07T21:42:32.693Z,99.90
2022-09-07T21:45:33.570Z,99.90
2022-09-07T21:48:34.608Z,99.90
2022-09-07T21:51:35.780Z,99.90
2022-09-07T21:54:38.300Z,99.90
2022-09-07T21:57:39.222Z,99.90
2022-09-07T22:00:40.159Z,99.90
2022-09-07T22:03:41.299Z,99.90
2022-09-07T22:06:44.009Z,99.90
2022-09-07T22:09:44.951Z,99.90
2022-09-07T22:12:45.807Z,99.90
2022-09-07T22:15:48.451Z,99.90
2022-09-07T22:18:50.221Z,99.90
2022-09-07T22:21:50.965Z,99.90
2022-09-07T22:24:52.129Z,99.90
2022-09-07T22:27:53.854Z,99.90
2022-09-07T22:30:54.932Z,99.90
2022-09-07T22:33:58.431Z,99.90
2022-09-07T22:36:59.477Z,99.90
2022-09-07T22:40:00.677Z,99.90
2022-09-07T22:43:01.822Z,99.90
2022-09-07T22:46:03.050Z,99.90
2022-09-07T22:49:06.588Z,99.90
2022-09-07T22:52:07.693Z,99.90
2022-09-07T22:55:09.619Z,99.90
2022-09-07T22:58:10.811Z,99.90
2022-09-07T23:01:11.552Z,99.90
2022-09-07T23:04:13.442Z,99.90
2022-09-07T23:07:15.076Z,99.90
2022-09-07T23:10:16.216Z,99.90
2022-09-07T23:13:16.969Z,99.90
2022-09-07T23:16:18.561Z,99.90
2022-09-07T23:19:20.563Z,99.90
2022-09-07T23:22:21.666Z,99.90
2022-09-07T23:25:22.775Z,99.90
2022-09-07T23:28:23.611Z,99.90
2022-09-07T23:31:26.879Z,99.90
2022-09-07T23:34:27.755Z,99.90
2022-09-07T23:37:28.699Z,99.90
2022-09-07T23:40:30.665Z,99.90
2022-09-07T23:43:31.841Z,99.90
2022-09-07T23:46:33.013Z,99.90
2022-09-07T23:49:34.217Z,99.90
2022-09-07T23:52:35.151Z,99.90
2022-09-07T23:55:35.982Z,99.90
2022-09-07T23:58:36.526Z,99.90
